Чимкент

Карта отелей и гостиниц, располагающихся рядом с аэропортом Чимкент :

Чимкент Южно-Казахстанская область 42° 21' 54.2988" N, 69° 28' 31.5012" E
Код аэродрома ИКАО
UAII
Код аэродрома RU
УАИИ
Координаты
N42.36508° E069.47542°
Превышение над уровнем моря
422
Основная полоса
10L/28R
Курс магнитный
100,8/280,8
Длина основной ВПП
3300
Ширина основной ВПП
45
Покрытие основной ВПП
Твёрдое (бетон)
Освещение ВПП
Постоянное
Тип: 
Аэродром
Класс аэродрома: 
Международный
Принадлежность: 
ГА
Статус: 
Действующий
Сайт: 
http://www.airserver.kz/
Страна: 
Казахстан
Регион: 
Южно-Казахстанская область
Дополнительная информация: 
Эксплуатант: АО «Аэропорт Шымкент». Совместного использования. Базируются: АО “Аэропорт Шымкент”, АО Авиакомпания «SCAT», Шымкентский филиал РГП "Казаэронавигация", Шымкентское представительство АО «Казаэросервис». Также используется военной авиацией. Аэродром 1 класса, пригоден для приёма ВС всех типов.
Погода: 

Авиационная погода в Чимкенте

Регион: 
Погода METAR: 
UAII 281400Z 11003MPS 5000 FU NSC 03/M04 Q1024 NOSIG RMK QFE732/0977
Время наблюдения
2021-11-28T14:00:00Z
Температура C
3.0
Точка росы
-4.0
Направление ветра
110
Скорость ветра (узлы)
6
Метео видимость
3.11
Явления погоды
FU
Условия полета
MVFR
Аэропорт подробнее: 

Найти трансфер

С помощью этой формы Вы можете найти трансфер из аэропорта Чимкент в город, аэропорт или вокзал:

Карта места

Javascript is required to view this map.

Погода в аэропортах:

Авиационная погода в Борисполе

Регион: 
Погода METAR: 
UKBB 281300Z 12005MPS 0750 0500W R36R/1000D R36L/0900D PRFG OVC001 04/04 Q1003 TEMPO 0300 FG VV001
Время наблюдения
2021-11-28T13:00:00Z
Температура C
4.0
Точка росы
4.0
Направление ветра
120
Скорость ветра (узлы)
10
Метео видимость
0.47
Явления погоды
PRFG
Условия полета
LIFR
Аэропорт подробнее: 

Авиационная погода в Алматы

Регион: 
Погода METAR: 
UAAA 281400Z 20002MPS 1200 R05L/P2000 R05R/P2000 BR FU FEW200 M03/M06 Q1026 NOSIG
Время наблюдения
2021-11-28T14:00:00Z
Температура C
-3.0
Точка росы
-6.0
Направление ветра
200
Скорость ветра (узлы)
4
Метео видимость
0.75
Явления погоды
FU BR
Условия полета
LIFR
Аэропорт подробнее: 

Авиационная погода в Игнатьево

Регион: 
Погода METAR: 
UHBB 281300Z 33002MPS 4200 -SHSN BKN033CB M09/M10 Q1022 R36/821060 NOSIG RMK QFE749/0998
Время наблюдения
2021-11-28T13:00:00Z
Температура C
-9.0
Точка росы
-10.0
Направление ветра
330
Скорость ветра (узлы)
4
Метео видимость
2.61
Явления погоды
-SHSN
Условия полета
IFR
Аэропорт подробнее: 

Авиационная погода в Нижнекамске

Регион: 
Погода METAR: 
UWKE 281300Z 23006G11MPS 5000 -SN BLSN BKN009 OVC026 M03/M04 Q1014 R21/450545 NOSIG RMK QFE744/0992
Время наблюдения
2021-11-28T13:00:00Z
Температура C
-3.0
Точка росы
-4.0
Направление ветра
230
Скорость ветра (узлы)
12
Метео видимость
3.11
Явления погоды
-SN BLSN
Условия полета
IFR
Аэропорт подробнее: